createdAt,value
2022-07-26T00:01:32.133Z,1.83
2022-07-26T00:04:01.029Z,2.05
2022-07-26T00:06:28.526Z,2.20
2022-07-26T00:08:55.403Z,2.55
2022-07-26T00:11:22.663Z,2.20
2022-07-26T00:13:49.692Z,2.25
2022-07-26T00:16:17.018Z,2.03
2022-07-26T00:18:44.192Z,2.22
2022-07-26T00:21:11.692Z,1.92
2022-07-26T00:23:39.693Z,1.95
2022-07-26T00:26:06.887Z,1.50
2022-07-26T00:28:34.078Z,1.95
2022-07-26T00:31:01.401Z,1.60
2022-07-26T00:33:28.488Z,1.90
2022-07-26T00:35:55.602Z,1.70
2022-07-26T00:38:22.678Z,1.77
2022-07-26T00:40:49.784Z,1.35
2022-07-26T00:43:16.918Z,1.80
2022-07-26T00:45:43.970Z,1.70
2022-07-26T00:48:11.044Z,1.50
2022-07-26T00:50:37.964Z,1.80
2022-07-26T00:53:05.636Z,1.65
2022-07-26T00:55:32.982Z,1.73
2022-07-26T00:58:01.861Z,1.52
2022-07-26T01:00:29.000Z,1.50
2022-07-26T01:02:57.220Z,1.92
2022-07-26T01:05:24.634Z,1.95
2022-07-26T01:07:52.845Z,1.48
2022-07-26T01:10:20.293Z,1.50
2022-07-26T01:12:47.301Z,1.63
2022-07-26T01:15:15.803Z,1.50
2022-07-26T01:17:43.484Z,1.30
2022-07-26T01:20:13.567Z,1.40
2022-07-26T01:22:40.818Z,1.60
2022-07-26T01:25:09.137Z,1.25
2022-07-26T01:27:39.531Z,1.35
2022-07-26T01:30:10.740Z,1.50
2022-07-26T01:32:38.176Z,1.33
2022-07-26T01:35:07.173Z,1.55
2022-07-26T01:37:34.182Z,1.50
2022-07-26T01:40:01.043Z,1.50
2022-07-26T01:42:27.978Z,1.63
2022-07-26T01:44:54.794Z,1.63
2022-07-26T01:47:21.836Z,1.45
2022-07-26T01:49:48.707Z,1.27
2022-07-26T01:52:15.783Z,1.70
2022-07-26T01:54:42.854Z,1.60
2022-07-26T01:57:09.819Z,1.27
2022-07-26T01:59:36.623Z,1.80
2022-07-26T02:02:03.616Z,1.73
2022-07-26T02:04:48.958Z,2.00
2022-07-26T02:07:15.897Z,1.50
2022-07-26T02:09:42.855Z,2.17
2022-07-26T02:12:10.093Z,1.67
2022-07-26T02:14:37.122Z,1.90
2022-07-26T02:17:04.097Z,1.92
2022-07-26T02:19:32.261Z,1.88
2022-07-26T02:21:59.379Z,1.75
2022-07-26T02:24:30.538Z,1.73
2022-07-26T02:26:59.508Z,1.52
2022-07-26T02:29:27.987Z,1.83
2022-07-26T02:31:56.374Z,1.92
2022-07-26T02:34:23.317Z,2.25
2022-07-26T02:36:50.423Z,1.80
2022-07-26T02:39:17.825Z,1.95
2022-07-26T02:41:44.881Z,1.77
2022-07-26T02:44:12.106Z,2.00
2022-07-26T02:46:39.296Z,1.60
2022-07-26T02:49:06.356Z,2.00
2022-07-26T02:51:33.443Z,1.90
2022-07-26T02:54:00.433Z,2.03
2022-07-26T02:56:27.475Z,2.10
2022-07-26T02:58:54.241Z,1.98
2022-07-26T03:01:21.573Z,2.00
2022-07-26T03:03:50.844Z,1.98
2022-07-26T03:06:19.452Z,2.60
2022-07-26T03:08:47.275Z,2.28
2022-07-26T03:11:14.658Z,2.33
2022-07-26T03:13:41.592Z,1.92
2022-07-26T03:16:08.975Z,2.03
2022-07-26T03:18:35.925Z,2.03
2022-07-26T03:21:03.874Z,2.08
2022-07-26T03:23:33.575Z,2.33
2022-07-26T03:26:03.593Z,1.90
2022-07-26T03:28:31.670Z,1.83
2022-07-26T03:30:58.808Z,2.67
2022-07-26T03:33:26.007Z,2.08
2022-07-26T03:35:52.908Z,2.30
2022-07-26T03:38:22.672Z,2.20
2022-07-26T03:40:49.618Z,2.40
2022-07-26T03:43:20.082Z,2.15
2022-07-26T03:45:50.095Z,2.20
2022-07-26T03:48:17.374Z,2.25
2022-07-26T03:50:45.538Z,2.03
2022-07-26T03:53:12.506Z,2.33
2022-07-26T03:55:58.047Z,2.10
2022-07-26T04:00:52.012Z,1.85
2022-07-26T04:03:19.877Z,2.00
2022-07-26T04:05:48.964Z,2.22
2022-07-26T04:08:16.681Z,2.30
2022-07-26T04:10:55.717Z,2.33
2022-07-26T04:13:26.806Z,2.63
2022-07-26T04:15:53.811Z,2.50
2022-07-26T04:18:21.059Z,2.53
2022-07-26T04:20:51.126Z,2.95
2022-07-26T04:23:18.789Z,2.60
2022-07-26T04:25:45.655Z,2.92
2022-07-26T04:28:13.283Z,3.40
2022-07-26T04:30:40.896Z,2.72
2022-07-26T04:33:07.931Z,3.13
2022-07-26T04:35:35.240Z,3.13
2022-07-26T04:38:04.080Z,3.35
2022-07-26T04:40:33.729Z,2.95
2022-07-26T04:43:01.985Z,3.40
2022-07-26T04:45:29.901Z,3.70
2022-07-26T04:47:57.445Z,2.85
2022-07-26T04:50:25.475Z,3.22
2022-07-26T04:52:52.899Z,3.40
2022-07-26T04:55:20.625Z,3.63
2022-07-26T04:57:47.992Z,3.47
2022-07-26T05:00:21.806Z,3.22
2022-07-26T05:02:51.023Z,3.10
2022-07-26T05:05:18.127Z,3.40
2022-07-26T05:07:47.860Z,2.88
2022-07-26T05:10:16.315Z,3.33
2022-07-26T05:12:43.409Z,3.47
2022-07-26T05:15:13.870Z,3.22
2022-07-26T05:17:44.695Z,3.20
2022-07-26T05:20:15.814Z,3.15
2022-07-26T05:22:42.946Z,2.83
2022-07-26T05:25:10.045Z,2.90
2022-07-26T05:27:37.365Z,3.00
2022-07-26T05:30:04.747Z,2.88
2022-07-26T05:32:31.766Z,3.50
2022-07-26T05:34:58.781Z,2.78
2022-07-26T05:37:25.941Z,2.88
2022-07-26T05:39:52.896Z,2.88
2022-07-26T05:42:19.877Z,2.83
2022-07-26T05:44:46.718Z,3.55
2022-07-26T05:47:13.758Z,3.03
2022-07-26T05:49:42.262Z,2.92
2022-07-26T05:52:09.461Z,3.30
2022-07-26T05:54:36.503Z,3.22
2022-07-26T05:57:04.386Z,3.00
2022-07-26T05:59:31.648Z,2.65
2022-07-26T06:01:58.687Z,3.00
2022-07-26T06:04:26.626Z,2.92
2022-07-26T06:06:55.035Z,2.90
2022-07-26T06:09:24.938Z,2.60
2022-07-26T06:11:53.719Z,2.88
2022-07-26T06:14:23.553Z,3.22
2022-07-26T06:17:01.348Z,2.78
2022-07-26T06:19:47.528Z,2.88
2022-07-26T06:22:54.602Z,2.50
2022-07-26T06:25:27.293Z,2.35
2022-07-26T06:30:56.293Z,2.33
2022-07-26T06:34:12.009Z,2.70
2022-07-26T06:36:39.716Z,2.25
2022-07-26T06:39:32.954Z,2.75
2022-07-26T06:42:24.639Z,2.53
2022-07-26T06:45:16.126Z,1.95
2022-07-26T06:47:52.863Z,2.15
2022-07-26T06:50:45.337Z,3.17
2022-07-26T06:53:20.950Z,2.50
2022-07-26T06:56:09.701Z,2.77
2022-07-26T06:59:16.941Z,2.47
2022-07-26T07:01:59.233Z,2.63
2022-07-26T07:04:40.131Z,2.72
2022-07-26T07:08:03.188Z,2.75
2022-07-26T07:12:43.864Z,2.47
2022-07-26T07:15:16.268Z,2.40
2022-07-26T07:17:44.758Z,2.72
2022-07-26T07:20:19.466Z,2.83
2022-07-26T07:22:49.561Z,2.83
2022-07-26T07:25:17.838Z,3.35
2022-07-26T07:27:52.137Z,2.90
2022-07-26T07:30:24.713Z,2.80
2022-07-26T07:32:58.289Z,2.90
2022-07-26T07:35:31.637Z,2.65
2022-07-26T07:38:00.691Z,3.05
2022-07-26T07:40:30.035Z,2.78
2022-07-26T07:42:57.919Z,3.10
2022-07-26T07:45:24.970Z,2.70
2022-07-26T07:47:54.715Z,2.75
2022-07-26T07:50:27.330Z,2.35
2022-07-26T07:53:00.079Z,2.65
2022-07-26T07:55:40.344Z,2.45
2022-07-26T07:58:08.725Z,2.33
2022-07-26T08:00:35.623Z,2.50
2022-07-26T08:03:04.343Z,2.70
2022-07-26T08:05:31.274Z,3.42
2022-07-26T08:07:58.111Z,2.10
2022-07-26T08:10:25.309Z,1.73
2022-07-26T08:12:52.326Z,2.50
2022-07-26T08:15:19.439Z,3.10
2022-07-26T08:17:51.100Z,3.95
2022-07-26T08:20:22.949Z,2.35
2022-07-26T08:22:50.665Z,2.53
2022-07-26T08:25:17.731Z,2.20
2022-07-26T08:27:55.060Z,2.22
2022-07-26T08:32:56.511Z,2.50
2022-07-26T08:35:23.547Z,2.08
2022-07-26T08:37:50.392Z,2.40
2022-07-26T08:40:17.725Z,2.10
2022-07-26T08:42:55.712Z,2.80
2022-07-26T08:45:31.071Z,2.50
2022-07-26T08:48:19.428Z,2.10
2022-07-26T08:50:47.892Z,2.28
2022-07-26T08:53:16.715Z,2.33
2022-07-26T08:56:06.563Z,1.85
2022-07-26T08:58:34.377Z,1.70
2022-07-26T09:01:09.334Z,2.05
2022-07-26T09:03:39.510Z,2.25
2022-07-26T09:06:22.419Z,2.58
2022-07-26T09:08:52.957Z,1.67
2022-07-26T09:11:32.246Z,1.60
2022-07-26T09:14:03.872Z,1.98
2022-07-26T09:16:34.938Z,1.85
2022-07-26T09:19:22.847Z,1.77
2022-07-26T09:21:51.207Z,1.70
2022-07-26T09:24:32.143Z,1.80
2022-07-26T09:27:01.619Z,1.83
2022-07-26T09:29:29.836Z,1.40
2022-07-26T09:32:36.987Z,1.50
2022-07-26T09:35:49.980Z,1.38
2022-07-26T09:38:15.490Z,1.50
2022-07-26T09:40:44.234Z,1.30
2022-07-26T09:43:23.794Z,1.80
2022-07-26T09:46:07.251Z,1.77
2022-07-26T09:49:06.992Z,1.73
2022-07-26T09:51:42.934Z,1.35
2022-07-26T09:54:11.509Z,1.55
2022-07-26T09:56:52.894Z,1.52
2022-07-26T09:59:22.402Z,1.98
2022-07-26T10:01:51.396Z,1.67
2022-07-26T10:04:19.912Z,1.48
2022-07-26T10:06:47.621Z,1.50
2022-07-26T10:09:15.570Z,6.65
2022-07-26T10:12:01.039Z,1.65
2022-07-26T10:14:41.039Z,2.58
2022-07-26T10:17:31.419Z,2.00
2022-07-26T10:20:01.945Z,1.83
2022-07-26T10:22:47.070Z,1.60
2022-07-26T10:27:52.633Z,1.50
2022-07-26T10:30:19.681Z,1.98
2022-07-26T10:33:25.032Z,1.67
2022-07-26T10:35:51.958Z,1.20
2022-07-26T10:38:27.058Z,1.48
2022-07-26T10:40:58.472Z,1.65
2022-07-26T10:43:42.733Z,1.80
2022-07-26T10:46:16.273Z,1.25
2022-07-26T10:49:09.494Z,1.55
2022-07-26T10:51:39.394Z,1.27
2022-07-26T10:54:10.722Z,1.60
2022-07-26T10:56:39.816Z,1.10
2022-07-26T10:59:07.458Z,1.42
2022-07-26T11:01:43.102Z,1.38
2022-07-26T11:04:20.011Z,1.30
2022-07-26T11:06:49.488Z,1.40
2022-07-26T11:09:21.864Z,1.33
2022-07-26T11:11:55.376Z,1.25
2022-07-26T11:14:22.518Z,1.27
2022-07-26T11:16:50.863Z,1.45
2022-07-26T11:19:26.297Z,1.08
2022-07-26T11:22:01.674Z,1.30
2022-07-26T11:24:31.386Z,1.13
2022-07-26T11:27:23.364Z,1.10
2022-07-26T11:30:03.658Z,1.23
2022-07-26T11:32:56.153Z,1.58
2022-07-26T11:35:23.861Z,1.10
2022-07-26T11:38:11.272Z,1.40
2022-07-26T11:40:43.159Z,2.00
2022-07-26T11:43:10.611Z,1.65
2022-07-26T11:45:47.563Z,1.13
2022-07-26T11:48:16.952Z,1.10
2022-07-26T11:50:46.996Z,1.30
2022-07-26T11:53:23.376Z,1.05
2022-07-26T11:55:50.379Z,1.05
2022-07-26T11:58:17.508Z,1.17
2022-07-26T12:00:44.456Z,1.48
2022-07-26T12:03:11.559Z,1.20
2022-07-26T12:05:39.106Z,1.10
2022-07-26T12:08:07.545Z,1.20
2022-07-26T12:10:34.530Z,1.20
2022-07-26T12:13:12.652Z,1.45
2022-07-26T12:15:50.171Z,1.90
2022-07-26T12:18:27.695Z,0.95
2022-07-26T12:21:09.344Z,1.30
2022-07-26T12:23:42.152Z,1.27
2022-07-26T12:26:38.487Z,0.90
2022-07-26T12:29:24.560Z,1.65
2022-07-26T12:32:02.956Z,1.30
2022-07-26T12:34:30.545Z,2.72
2022-07-26T12:37:10.326Z,1.10
2022-07-26T12:39:38.205Z,1.05
2022-07-26T12:42:34.141Z,1.13
2022-07-26T12:45:02.699Z,1.25
2022-07-26T12:47:29.938Z,1.30
2022-07-26T12:49:56.871Z,1.20
2022-07-26T12:52:24.570Z,1.00
2022-07-26T12:54:53.541Z,0.98
2022-07-26T12:57:20.843Z,1.30
2022-07-26T12:59:48.882Z,1.30
2022-07-26T13:02:18.106Z,1.00
2022-07-26T13:04:45.590Z,0.85
2022-07-26T13:07:12.818Z,1.00
2022-07-26T13:09:40.197Z,0.80
2022-07-26T13:12:09.485Z,1.10
2022-07-26T13:14:37.877Z,0.90
2022-07-26T13:17:06.530Z,0.95
2022-07-26T13:19:34.121Z,1.40
2022-07-26T13:22:02.219Z,1.20
2022-07-26T13:24:30.438Z,0.93
2022-07-26T13:27:10.818Z,1.55
2022-07-26T13:29:40.943Z,1.20
2022-07-26T13:32:12.228Z,1.08
2022-07-26T13:35:04.921Z,0.93
2022-07-26T13:37:42.007Z,0.88
2022-07-26T13:40:14.615Z,0.82
2022-07-26T13:42:43.857Z,0.80
2022-07-26T13:45:11.803Z,0.90
2022-07-26T13:48:01.054Z,0.82
2022-07-26T13:50:35.242Z,0.90
2022-07-26T13:56:27.925Z,0.98
2022-07-26T13:59:04.803Z,0.93
2022-07-26T14:01:43.573Z,0.90
2022-07-26T14:04:15.621Z,1.05
2022-07-26T14:06:53.888Z,1.58
2022-07-26T14:09:31.837Z,1.17
2022-07-26T14:12:19.985Z,0.90
2022-07-26T14:21:00.582Z,0.80
2022-07-26T14:23:33.446Z,1.48
2022-07-26T14:26:03.705Z,1.10
2022-07-26T14:28:59.301Z,1.00
2022-07-26T14:38:59.992Z,0.85
2022-07-26T14:44:47.867Z,0.70
2022-07-26T15:08:19.471Z,0.95
2022-07-26T15:10:47.785Z,1.40
2022-07-26T15:13:15.790Z,1.13
2022-07-26T15:15:44.874Z,1.10
2022-07-26T15:18:11.894Z,1.10
2022-07-26T15:20:52.938Z,0.80
2022-07-26T15:23:30.166Z,1.05
2022-07-26T15:26:01.252Z,1.10
2022-07-26T15:28:34.084Z,1.00
2022-07-26T15:31:06.538Z,1.10
2022-07-26T15:33:36.341Z,1.20
2022-07-26T15:36:06.989Z,1.00
2022-07-26T15:38:40.066Z,0.82
2022-07-26T15:41:09.337Z,0.97
2022-07-26T15:43:48.034Z,1.00
2022-07-26T15:46:27.729Z,1.10
2022-07-26T15:49:21.767Z,0.90
2022-07-26T15:52:34.801Z,1.15
2022-07-26T15:55:05.063Z,1.05
2022-07-26T15:57:38.744Z,1.27
2022-07-26T16:01:17.367Z,1.20
2022-07-26T16:03:02.510Z,1.55
2022-07-26T16:05:38.621Z,0.95
2022-07-26T16:08:20.891Z,1.25
2022-07-26T16:11:19.393Z,1.00
2022-07-26T16:14:04.261Z,1.10
2022-07-26T16:16:33.811Z,1.50
2022-07-26T16:19:03.556Z,1.00
2022-07-26T16:21:32.745Z,1.80
2022-07-26T16:24:06.702Z,1.40
2022-07-26T16:26:36.320Z,1.15
2022-07-26T16:29:06.148Z,1.30
2022-07-26T16:31:33.543Z,1.02
2022-07-26T16:34:01.145Z,1.20
2022-07-26T16:36:29.608Z,1.30
2022-07-26T16:39:00.109Z,1.00
2022-07-26T16:41:35.113Z,1.20
2022-07-26T16:44:07.795Z,1.33
2022-07-26T16:47:16.833Z,1.30
2022-07-26T16:49:52.302Z,1.83
2022-07-26T16:52:20.404Z,1.50
2022-07-26T16:54:47.511Z,2.15
2022-07-26T16:57:20.754Z,1.63
2022-07-26T16:59:50.839Z,1.90
2022-07-26T17:02:20.873Z,1.70
2022-07-26T17:04:52.540Z,2.13
2022-07-26T17:07:25.841Z,1.55
2022-07-26T17:10:06.308Z,1.60
2022-07-26T17:12:33.869Z,1.45
2022-07-26T17:15:01.386Z,1.80
2022-07-26T17:17:32.191Z,1.52
2022-07-26T17:20:02.417Z,1.40
2022-07-26T17:22:32.972Z,1.00
2022-07-26T17:27:52.669Z,1.30
2022-07-26T17:30:34.232Z,1.10
2022-07-26T17:33:12.683Z,1.23
2022-07-26T17:35:41.650Z,0.95
2022-07-26T17:38:10.617Z,1.20
2022-07-26T17:40:38.587Z,1.10
2022-07-26T17:43:06.829Z,0.98
2022-07-26T17:45:34.221Z,1.45
2022-07-26T17:48:05.895Z,1.27
2022-07-26T17:50:37.001Z,1.23
2022-07-26T17:53:05.258Z,2.15
2022-07-26T17:55:33.063Z,1.20
2022-07-26T17:58:00.255Z,2.10
2022-07-26T18:00:28.793Z,1.63
2022-07-26T18:02:58.503Z,1.60
2022-07-26T18:05:34.185Z,1.73
2022-07-26T18:08:04.575Z,1.55
2022-07-26T18:10:32.454Z,1.45
2022-07-26T18:13:00.096Z,1.70
2022-07-26T18:15:27.825Z,1.45
2022-07-26T18:17:58.094Z,1.33
2022-07-26T18:20:25.349Z,1.70
2022-07-26T18:22:54.159Z,2.25
2022-07-26T18:25:21.627Z,1.70
2022-07-26T18:27:49.873Z,1.50
2022-07-26T18:30:17.015Z,1.85
2022-07-26T18:32:43.962Z,1.83
2022-07-26T18:35:10.940Z,2.00
2022-07-26T18:37:38.018Z,2.22
2022-07-26T18:40:05.734Z,1.95
2022-07-26T18:42:32.607Z,1.90
2022-07-26T18:44:59.442Z,1.60
2022-07-26T18:47:26.448Z,1.70
2022-07-26T18:49:53.860Z,2.08
2022-07-26T18:52:28.171Z,2.22
2022-07-26T18:54:56.457Z,1.80
2022-07-26T18:57:23.410Z,1.70
2022-07-26T18:59:50.567Z,1.90
2022-07-26T19:05:01.155Z,2.08
2022-07-26T19:07:28.303Z,1.88
2022-07-26T19:09:58.526Z,1.60
2022-07-26T19:12:27.940Z,1.50
2022-07-26T19:14:55.543Z,2.53
2022-07-26T19:17:22.807Z,2.10
2022-07-26T19:19:49.819Z,1.90
2022-07-26T19:22:16.910Z,2.72
2022-07-26T19:24:44.316Z,2.55
2022-07-26T19:27:15.194Z,2.00
2022-07-26T19:29:45.875Z,2.55
2022-07-26T19:32:16.144Z,2.30
2022-07-26T19:34:44.237Z,2.50
2022-07-26T19:37:20.017Z,2.15
2022-07-26T19:39:49.606Z,2.85
2022-07-26T19:42:24.254Z,2.28
2022-07-26T19:44:52.029Z,2.25
2022-07-26T19:47:30.143Z,2.00
2022-07-26T19:50:56.956Z,2.00
2022-07-26T19:53:33.108Z,1.95
2022-07-26T19:56:06.134Z,1.90
2022-07-26T19:58:33.655Z,2.53
2022-07-26T20:01:03.352Z,2.45
2022-07-26T20:03:39.917Z,2.20
2022-07-26T20:06:09.755Z,2.60
2022-07-26T20:08:41.118Z,1.98
2022-07-26T20:11:41.887Z,2.00
2022-07-26T20:14:18.326Z,2.00
2022-07-26T20:16:56.098Z,1.75
2022-07-26T20:19:27.083Z,2.60
2022-07-26T20:21:54.684Z,2.60
2022-07-26T20:24:22.450Z,2.50
2022-07-26T20:26:50.666Z,2.78
2022-07-26T20:29:21.913Z,2.80
2022-07-26T20:31:57.995Z,3.40
2022-07-26T20:34:43.311Z,2.85
2022-07-26T20:37:15.533Z,2.65
2022-07-26T20:39:47.249Z,2.70
2022-07-26T20:42:21.484Z,2.38
2022-07-26T20:44:49.488Z,2.28
2022-07-26T20:47:16.348Z,2.38
2022-07-26T20:49:43.369Z,2.20
2022-07-26T20:52:10.796Z,2.28
2022-07-26T20:54:40.010Z,2.38
2022-07-26T20:57:07.099Z,1.75
2022-07-26T20:59:35.265Z,1.80
2022-07-26T21:02:02.381Z,1.90
2022-07-26T21:04:30.095Z,2.10
2022-07-26T21:06:56.966Z,2.10
2022-07-26T21:09:30.616Z,1.80
2022-07-26T21:11:58.968Z,1.55
2022-07-26T21:14:26.323Z,1.48
2022-07-26T21:16:53.627Z,1.77
2022-07-26T21:19:20.664Z,1.65
2022-07-26T21:21:50.546Z,1.52
2022-07-26T21:24:17.763Z,1.80
2022-07-26T21:26:45.749Z,1.60
2022-07-26T21:29:13.165Z,1.80
2022-07-26T21:31:40.321Z,1.80
2022-07-26T21:34:10.540Z,1.85
2022-07-26T21:36:40.470Z,1.80
2022-07-26T21:39:08.619Z,1.70
2022-07-26T21:41:38.726Z,1.70
2022-07-26T21:44:06.253Z,1.83
2022-07-26T21:46:33.413Z,1.70
2022-07-26T21:49:00.554Z,1.90
2022-07-26T21:51:27.416Z,1.77
2022-07-26T21:53:54.557Z,2.13
2022-07-26T21:56:22.257Z,2.13
2022-07-26T21:58:49.475Z,1.73
2022-07-26T22:01:19.097Z,1.85
2022-07-26T22:03:47.593Z,1.55
2022-07-26T22:06:17.358Z,1.70
2022-07-26T22:08:45.145Z,1.75
2022-07-26T22:11:12.828Z,1.83
2022-07-26T22:13:40.322Z,2.45
2022-07-26T22:16:07.655Z,2.20
2022-07-26T22:18:35.154Z,2.25
2022-07-26T22:21:02.389Z,1.80
2022-07-26T22:23:35.174Z,1.90
2022-07-26T22:26:04.366Z,1.85
2022-07-26T22:28:33.178Z,1.98
2022-07-26T22:31:00.828Z,1.80
2022-07-26T22:33:27.740Z,1.80
2022-07-26T22:35:54.935Z,1.55
2022-07-26T22:38:22.013Z,1.83
2022-07-26T22:40:48.971Z,1.63
2022-07-26T22:43:16.174Z,2.10
2022-07-26T22:45:43.410Z,2.47
2022-07-26T22:48:10.524Z,2.58
2022-07-26T22:50:37.727Z,2.88
2022-07-26T22:53:04.773Z,2.70
2022-07-26T22:55:31.874Z,2.60
2022-07-26T22:57:58.885Z,2.45
2022-07-26T23:00:26.018Z,2.08
2022-07-26T23:02:53.224Z,2.03
2022-07-26T23:05:20.456Z,1.73
2022-07-26T23:07:48.500Z,1.40
2022-07-26T23:10:16.416Z,1.80
2022-07-26T23:12:43.478Z,1.80
2022-07-26T23:15:10.818Z,1.58
2022-07-26T23:17:38.095Z,1.80
2022-07-26T23:20:06.745Z,1.50
2022-07-26T23:22:34.471Z,1.30
2022-07-26T23:25:01.618Z,1.60
2022-07-26T23:27:28.554Z,1.77
2022-07-26T23:29:55.654Z,1.65
2022-07-26T23:32:22.738Z,1.50
2022-07-26T23:34:49.626Z,1.45
2022-07-26T23:37:16.480Z,1.60
2022-07-26T23:39:43.676Z,1.90
2022-07-26T23:42:10.666Z,2.00
2022-07-26T23:44:37.517Z,1.75
2022-07-26T23:47:04.816Z,1.80
2022-07-26T23:49:32.005Z,1.60
2022-07-26T23:51:59.154Z,1.33
2022-07-26T23:54:26.048Z,1.33
2022-07-26T23:56:53.108Z,2.00
2022-07-26T23:59:20.212Z,1.45
